Wymark, Canada
Current Conditions -  °F | °C
As of 6:00 PM on Saturday 25 Oct 2014 (Local Time) from CYYN Reporting Station
Broken Clouds Broken Clouds  
Wind Chill: 50°   Ceiling: 18000
Heat Index: 50°   Visibility: 9mi
Dew Point: 28°   Wind: 18mph
Humidity: 43%   Direction: 110°ESE
Pressure: 29.77"   Gusts: 25mph
Location:  50.11°N, 107.74°W
Report Text: CYYN 260000Z AUTO 11016G22KT 9SM BKN180 BKN210 10/M02 A2977 RMK SLP101 DENSITY ALT 2800FT
Loading
Personal Weather Stations






























Interactive Weather Map
Tropical Storm Tracking
New forecast layout! Learn more

10-Day Weather Forecast

Advertisements
Track Severe Weather on mobile